Time;durP1;ratioP1;P1;durP2;ratioP2;P2;SDS_P1;SDS_P2;PMS_P1;PMS_P2;Temp;Humidity;BMP_temperature;BMP_pressure;BME280_temperature;BME280_humidity;BME280_pressure;Samples;Min_cycle;Max_cycle;Signal;HPM_P1;HPM_P2
2023/06/06 00:00:19;;;;;;;6.68;5.22;;;13.00;99.90;;;;;;4876511;29;20038;-68
2023/06/06 00:02:46;;;;;;;9.40;6.75;;;12.90;99.90;;;;;;4885152;29;20333;-68
2023/06/06 00:05:14;;;;;;;10.55;7.38;;;12.90;99.90;;;;;;4883081;29;20035;-68
2023/06/06 00:07:46;;;;;;;10.57;6.80;;;12.90;99.90;;;;;;4886952;29;20031;-68
2023/06/06 00:10:14;;;;;;;8.35;7.38;;;12.80;99.90;;;;;;4864649;29;20043;-68
2023/06/06 00:12:41;;;;;;;8.82;6.38;;;12.80;99.90;;;;;;4906547;29;20036;-68
2023/06/06 00:15:09;;;;;;;10.38;6.75;;;12.70;99.90;;;;;;4902727;29;20734;-68
2023/06/06 00:17:38;;;;;;;9.63;6.32;;;12.70;99.90;;;;;;4883197;29;20044;-68
2023/06/06 00:20:08;;;;;;;9.07;7.05;;;12.60;99.90;;;;;;4892494;29;20051;-68
2023/06/06 00:22:36;;;;;;;9.90;7.03;;;12.60;99.90;;;;;;4884139;29;20035;-68
2023/06/06 00:25:04;;;;;;;9.27;6.82;;;12.60;99.90;;;;;;4883333;29;20044;-68
2023/06/06 00:27:31;;;;;;;12.90;7.97;;;12.50;99.90;;;;;;4849261;29;1074910;-68
2023/06/06 00:29:58;;;;;;;10.23;6.60;;;12.50;99.90;;;;;;4862773;29;20040;-68
2023/06/06 00:32:26;;;;;;;9.85;6.55;;;12.50;99.90;;;;;;4873171;29;20048;-67
2023/06/06 00:34:54;;;;;;;11.63;8.35;;;12.50;99.90;;;;;;4905034;29;20040;-68
2023/06/06 00:37:20;;;;;;;9.43;6.45;;;12.40;99.90;;;;;;4900834;29;20297;-67
2023/06/06 00:39:47;;;;;;;10.20;6.32;;;12.40;99.90;;;;;;4890891;29;20043;-68
2023/06/06 00:42:13;;;;;;;11.05;7.18;;;12.40;99.90;;;;;;4883044;29;20049;-68
2023/06/06 00:44:40;;;;;;;10.05;8.60;;;12.30;99.90;;;;;;4897828;29;20040;-67
2023/06/06 00:47:07;;;;;;;10.63;7.13;;;12.30;99.90;;;;;;4900608;29;20043;-67
2023/06/06 00:49:36;;;;;;;11.82;7.40;;;12.20;99.90;;;;;;4879709;29;20482;-68
2023/06/06 00:52:03;;;;;;;7.97;6.32;;;12.20;99.90;;;;;;4902137;29;20476;-68
2023/06/06 00:54:31;;;;;;;7.57;5.75;;;12.20;99.90;;;;;;4891819;29;20480;-68
2023/06/06 00:56:58;;;;;;;7.55;6.45;;;12.20;99.90;;;;;;4902396;29;20047;-68
2023/06/06 00:59:24;;;;;;;11.25;6.53;;;12.10;99.90;;;;;;4879868;29;20285;-68
2023/06/06 01:01:51;;;;;;;7.65;5.55;;;12.10;99.90;;;;;;4877687;29;20044;-68
2023/06/06 01:04:18;;;;;;;11.13;6.65;;;12.10;99.90;;;;;;4895094;29;20035;-67
2023/06/06 01:06:46;;;;;;;14.75;8.70;;;12.10;99.90;;;;;;4894999;29;20055;-67
2023/06/06 01:09:16;;;;;;;9.68;6.68;;;12.00;99.90;;;;;;4864932;29;20151;-67
2023/06/06 01:12:08;;;;;;;10.68;8.20;;;12.00;99.90;;;;;;4875835;29;20043;-67
2023/06/06 01:14:43;;;;;;;9.70;7.57;;;11.90;99.90;;;;;;4903016;29;20050;-67
2023/06/06 01:17:11;;;;;;;12.50;8.73;;;11.90;99.90;;;;;;4902621;29;20046;-67
2023/06/06 01:19:41;;;;;;;9.98;6.85;;;11.90;99.90;;;;;;4875374;29;20050;-67
2023/06/06 01:22:07;;;;;;;12.68;7.65;;;11.90;99.90;;;;;;4896178;29;20039;-67
2023/06/06 01:24:36;;;;;;;11.25;7.32;;;11.90;99.90;;;;;;4896989;29;20256;-67
2023/06/06 01:27:03;;;;;;;13.45;7.80;;;11.80;99.90;;;;;;4864910;29;20039;-67
2023/06/06 01:29:30;;;;;;;7.95;6.50;;;11.80;99.90;;;;;;4896745;29;21508;-67
2023/06/06 01:32:12;;;;;;;11.90;8.18;;;11.80;99.90;;;;;;4866778;29;20427;-67
2023/06/06 01:35:02;;;;;;;8.65;7.00;;;11.80;99.90;;;;;;4889469;29;20050;-67
2023/06/06 01:37:48;;;;;;;9.13;6.88;;;11.80;99.90;;;;;;4905862;29;20407;-67
2023/06/06 01:40:18;;;;;;;10.05;6.43;;;11.70;99.90;;;;;;4893994;29;20385;-67
2023/06/06 01:42:47;;;;;;;10.52;7.43;;;11.70;99.90;;;;;;4900726;29;20062;-67
2023/06/06 01:45:17;;;;;;;10.02;6.57;;;11.70;99.90;;;;;;4868520;29;20522;-67
2023/06/06 01:47:44;;;;;;;10.85;7.15;;;11.70;99.90;;;;;;4884364;29;20423;-67
2023/06/06 01:50:11;;;;;;;8.93;6.57;;;11.60;99.90;;;;;;4892340;29;20051;-67
2023/06/06 01:52:38;;;;;;;11.80;7.75;;;11.60;99.90;;;;;;4899809;29;20054;-67
2023/06/06 01:55:05;;;;;;;11.30;7.70;;;11.60;99.90;;;;;;4902165;29;20027;-67
2023/06/06 01:57:32;;;;;;;8.43;6.22;;;11.60;99.90;;;;;;4886803;29;20427;-67
2023/06/06 02:00:00;;;;;;;11.88;7.32;;;11.60;99.90;;;;;;4889327;29;20043;-67
2023/06/06 02:02:27;;;;;;;10.65;7.45;;;11.60;99.90;;;;;;4863799;29;20078;-67
2023/06/06 02:04:53;;;;;;;10.30;7.05;;;11.50;99.90;;;;;;4861772;29;20039;-67
2023/06/06 02:07:20;;;;;;;11.70;7.25;;;11.50;99.90;;;;;;4896185;29;20036;-67
2023/06/06 02:09:47;;;;;;;8.88;6.15;;;11.50;99.90;;;;;;4888025;29;20044;-67
2023/06/06 02:12:13;;;;;;;10.73;7.47;;;11.40;99.90;;;;;;4865102;29;20051;-67
2023/06/06 02:14:41;;;;;;;10.18;7.57;;;11.50;99.90;;;;;;4868059;29;20030;-67
2023/06/06 02:17:07;;;;;;;11.43;6.72;;;11.40;99.90;;;;;;4872977;29;20051;-67
2023/06/06 02:19:33;;;;;;;8.55;5.68;;;11.40;99.90;;;;;;4896965;29;20432;-67
2023/06/06 02:22:00;;;;;;;8.82;6.25;;;11.40;99.90;;;;;;4897172;29;20028;-67
2023/06/06 02:24:27;;;;;;;10.07;6.38;;;11.40;99.90;;;;;;4894790;29;20593;-67
2023/06/06 02:26:57;;;;;;;8.52;6.50;;;11.30;99.90;;;;;;4865068;29;20456;-67
2023/06/06 02:29:24;;;;;;;13.82;8.93;;;11.30;99.90;;;;;;4892536;29;20047;-67
2023/06/06 02:31:52;;;;;;;12.18;8.15;;;11.30;99.90;;;;;;4893266;29;20384;-67
2023/06/06 02:34:19;;;;;;;11.82;7.07;;;11.30;99.90;;;;;;4879524;29;20046;-67
2023/06/06 02:36:48;;;;;;;10.95;7.50;;;11.30;99.90;;;;;;4898356;29;20035;-67
2023/06/06 02:39:14;;;;;;;16.30;9.15;;;11.30;99.90;;;;;;4902729;29;20046;-67
2023/06/06 02:41:41;;;;;;;11.00;7.60;;;11.20;99.90;;;;;;4895077;29;20047;-67
2023/06/06 02:44:08;;;;;;;13.20;8.48;;;11.20;99.90;;;;;;4883760;29;20047;-67
2023/06/06 02:46:34;;;;;;;13.88;9.70;;;11.20;99.90;;;;;;4879762;29;20043;-67
2023/06/06 02:49:01;;;;;;;14.07;9.02;;;11.20;99.90;;;;;;4880917;29;20048;-67
2023/06/06 02:51:27;;;;;;;12.52;8.73;;;11.20;99.90;;;;;;4874561;29;20043;-67
2023/06/06 02:53:54;;;;;;;10.85;7.32;;;11.20;99.90;;;;;;4899753;29;21432;-67
2023/06/06 02:56:20;;;;;;;10.80;8.18;;;11.20;99.90;;;;;;4867353;29;20050;-67
2023/06/06 02:58:47;;;;;;;15.13;9.18;;;11.20;99.90;;;;;;4857680;29;20039;-67
2023/06/06 03:01:14;;;;;;;10.02;7.32;;;11.20;99.90;;;;;;4900519;29;20033;-67
2023/06/06 03:03:41;;;;;;;10.50;8.00;;;11.10;99.90;;;;;;4887469;29;20052;-67
2023/06/06 03:06:07;;;;;;;9.52;7.32;;;11.10;99.90;;;;;;4867064;29;21334;-67
2023/06/06 03:08:34;;;;;;;13.43;8.65;;;11.10;99.90;;;;;;4899529;29;20396;-67
2023/06/06 03:11:01;;;;;;;14.90;8.85;;;11.10;99.90;;;;;;4876224;29;20023;-67
2023/06/06 03:13:27;;;;;;;11.18;7.95;;;11.10;99.90;;;;;;4881245;29;20442;-67
2023/06/06 03:15:54;;;;;;;10.75;7.18;;;11.10;99.90;;;;;;4883871;29;20035;-67
2023/06/06 03:18:21;;;;;;;14.75;8.55;;;11.10;99.90;;;;;;4901819;29;20039;-67
2023/06/06 03:20:53;;;;;;;;;;;11.10;99.90;;;;;;4898278;29;20043;-67
2023/06/06 03:23:23;;;;;;;8.50;6.72;;;11.10;99.90;;;;;;4891669;29;19918;-67
2023/06/06 03:25:51;;;;;;;14.77;8.88;;;11.10;99.90;;;;;;4884679;29;20048;-67
2023/06/06 03:28:18;;;;;;;11.10;7.32;;;11.00;99.90;;;;;;4896867;29;20490;-67
2023/06/06 03:30:46;;;;;;;11.50;7.63;;;11.00;99.90;;;;;;4888701;29;20031;-67
2023/06/06 03:33:13;;;;;;;13.00;8.52;;;11.00;99.90;;;;;;4897637;29;20042;-67
2023/06/06 03:35:42;;;;;;;14.93;8.23;;;11.00;99.90;;;;;;4899093;29;20048;-67
2023/06/06 03:38:09;;;;;;;10.85;7.50;;;11.00;99.90;;;;;;4897964;29;21605;-67
2023/06/06 03:40:36;;;;;;;11.88;7.45;;;11.00;99.90;;;;;;4879552;29;20120;-67
2023/06/06 03:43:03;;;;;;;11.07;7.03;;;11.10;99.90;;;;;;4888556;29;20043;-67
2023/06/06 03:45:31;;;;;;;10.30;7.20;;;11.10;99.90;;;;;;4888874;29;20619;-67
2023/06/06 03:47:58;;;;;;;10.52;7.80;;;11.10;99.90;;;;;;4899195;29;20521;-67
2023/06/06 03:50:24;;;;;;;15.85;8.75;;;11.00;99.90;;;;;;4873099;29;20431;-67
2023/06/06 03:52:51;;;;;;;14.05;8.73;;;11.10;99.90;;;;;;4881682;29;20387;-67
2023/06/06 03:55:17;;;;;;;10.82;8.07;;;11.10;99.90;;;;;;4882961;29;20042;-67
2023/06/06 03:57:43;;;;;;;14.30;8.95;;;11.10;99.90;;;;;;4883370;29;20043;-67
2023/06/06 04:00:10;;;;;;;10.82;7.50;;;11.10;99.90;;;;;;4878825;29;20050;-67
2023/06/06 04:02:40;;;;;;;11.38;8.48;;;11.10;99.90;;;;;;4904346;29;20311;-67
2023/06/06 04:05:08;;;;;;;12.13;7.88;;;11.10;99.90;;;;;;4904438;29;20491;-68
2023/06/06 04:07:35;;;;;;;12.68;8.75;;;11.10;99.90;;;;;;4883887;29;20054;-67
2023/06/06 04:10:03;;;;;;;11.15;8.82;;;11.20;99.90;;;;;;4878921;29;20392;-67
2023/06/06 04:12:31;;;;;;;13.10;8.63;;;11.20;99.90;;;;;;4900711;29;20039;-67
2023/06/06 04:14:57;;;;;;;13.52;9.38;;;11.20;99.90;;;;;;4879495;29;20538;-67
2023/06/06 04:17:24;;;;;;;14.90;7.70;;;11.20;99.90;;;;;;4900387;29;20034;-67
2023/06/06 04:19:51;;;;;;;10.73;7.03;;;11.30;99.90;;;;;;4876431;29;20484;-67
2023/06/06 04:22:19;;;;;;;10.10;8.27;;;11.30;99.90;;;;;;4904872;29;20039;-67
2023/06/06 04:24:46;;;;;;;16.67;9.38;;;11.40;99.90;;;;;;4905665;29;20055;-67
2023/06/06 04:27:13;;;;;;;12.38;8.13;;;11.50;99.90;;;;;;4890265;29;20503;-67
2023/06/06 04:29:42;;;;;;;11.07;7.85;;;11.50;99.90;;;;;;4879780;29;20048;-67
2023/06/06 04:32:18;;;;;;;12.10;7.38;;;11.60;99.90;;;;;;4900038;29;20044;-67
2023/06/06 04:34:46;;;;;;;11.32;7.30;;;11.60;99.90;;;;;;4868729;29;20055;-75
2023/06/06 04:37:17;;;;;;;12.70;8.70;;;11.70;99.90;;;;;;4868060;29;20032;-69
2023/06/06 04:39:52;;;;;;;8.48;7.18;;;11.80;99.90;;;;;;4889467;29;20558;-67
2023/06/06 04:42:20;;;;;;;14.55;8.93;;;11.80;99.90;;;;;;4885668;29;20451;-67
2023/06/06 04:44:47;;;;;;;11.02;7.10;;;11.90;99.90;;;;;;4886850;29;20074;-71
2023/06/06 04:47:14;;;;;;;12.60;8.15;;;12.00;99.90;;;;;;4872435;29;20051;-70
2023/06/06 04:49:40;;;;;;;10.95;7.75;;;12.10;99.90;;;;;;4896528;29;20048;-70
2023/06/06 04:52:10;;;;;;;13.25;8.30;;;12.20;99.90;;;;;;4898362;29;20028;-70
2023/06/06 04:54:37;;;;;;;19.38;12.18;;;12.30;99.90;;;;;;4895958;29;20050;-70
2023/06/06 04:57:08;;;;;;;14.70;9.57;;;12.40;99.90;;;;;;4896786;29;20483;-70
2023/06/06 04:59:37;;;;;;;11.43;8.48;;;12.50;99.90;;;;;;4863147;29;20039;-69
2023/06/06 05:02:03;;;;;;;12.73;8.60;;;12.60;99.90;;;;;;4882595;29;20043;-71
2023/06/06 05:04:31;;;;;;;11.80;8.45;;;12.70;99.90;;;;;;4886644;29;20463;-71
2023/06/06 05:06:58;;;;;;;10.32;7.18;;;12.80;99.90;;;;;;4905711;29;20059;-71
2023/06/06 05:09:25;;;;;;;14.50;8.93;;;12.90;99.90;;;;;;4900747;29;20044;-69
2023/06/06 05:11:54;;;;;;;10.98;8.10;;;12.90;99.90;;;;;;4878058;29;20036;-69
2023/06/06 05:14:24;;;;;;;10.27;7.63;;;13.00;99.90;;;;;;4867247;29;20128;-68
2023/06/06 05:16:53;;;;;;;15.25;10.05;;;13.10;99.90;;;;;;4897731;29;20113;-67
2023/06/06 05:19:20;;;;;;;13.75;9.05;;;13.20;99.90;;;;;;4883016;29;20036;-68
2023/06/06 05:21:47;;;;;;;13.50;8.88;;;13.30;99.90;;;;;;4879499;29;20027;-68
2023/06/06 05:24:14;;;;;;;13.45;8.52;;;13.30;99.90;;;;;;4900145;29;20266;-66
2023/06/06 05:26:41;;;;;;;9.43;6.20;;;13.40;99.90;;;;;;4902025;29;20635;-67
2023/06/06 05:29:08;;;;;;;9.15;6.28;;;13.50;99.90;;;;;;4904944;29;20047;-66
2023/06/06 05:31:35;;;;;;;10.52;7.38;;;13.60;99.90;;;;;;4900259;29;20024;-67
2023/06/06 05:34:03;;;;;;;11.50;7.38;;;13.70;99.90;;;;;;4883573;29;20383;-66
2023/06/06 05:36:29;;;;;;;17.10;7.88;;;13.90;99.90;;;;;;4899424;29;20028;-66
2023/06/06 05:38:56;;;;;;;13.13;7.43;;;14.00;99.90;;;;;;4882968;29;20051;-67
2023/06/06 05:41:23;;;;;;;13.68;7.85;;;14.10;99.90;;;;;;4892052;29;20490;-66
2023/06/06 05:43:50;;;;;;;13.20;7.97;;;14.20;99.90;;;;;;4898914;29;20048;-66
2023/06/06 05:46:17;;;;;;;10.35;7.38;;;14.20;99.90;;;;;;4898511;29;20035;-66
2023/06/06 05:48:43;;;;;;;9.68;6.90;;;14.30;99.90;;;;;;4904502;29;20817;-67
2023/06/06 05:51:10;;;;;;;10.32;7.28;;;14.50;99.90;;;;;;4880153;29;20050;-67
2023/06/06 05:53:46;;;;;;;9.35;6.90;;;14.50;99.90;;;;;;4901739;29;20043;-66
2023/06/06 05:56:16;;;;;;;8.60;6.20;;;14.60;99.90;;;;;;4898663;29;20039;-66
2023/06/06 05:58:46;;;;;;;9.75;5.93;;;14.70;99.90;;;;;;4895190;29;20046;-66
2023/06/06 06:01:13;;;;;;;11.90;6.25;;;15.00;99.90;;;;;;4873189;29;20070;-66
2023/06/06 06:03:39;;;;;;;9.55;6.30;;;15.30;99.90;;;;;;4897332;29;20479;-67
2023/06/06 06:06:08;;;;;;;10.23;5.45;;;15.50;99.90;;;;;;4897223;29;20312;-66
2023/06/06 06:08:35;;;;;;;9.20;6.10;;;15.60;99.90;;;;;;4884353;29;20043;-67
2023/06/06 06:11:02;;;;;;;7.63;5.07;;;15.60;99.90;;;;;;4895178;29;20522;-66
2023/06/06 06:13:29;;;;;;;9.10;5.35;;;15.80;99.90;;;;;;4902698;29;20511;-66
2023/06/06 06:15:56;;;;;;;5.85;5.03;;;16.10;99.90;;;;;;4881438;29;20700;-66
2023/06/06 06:18:23;;;;;;;8.13;5.97;;;16.30;99.90;;;;;;4869967;29;20031;-67
2023/06/06 06:20:49;;;;;;;7.47;5.80;;;16.60;99.90;;;;;;4891587;29;20701;-67
2023/06/06 06:23:16;;;;;;;8.32;5.13;;;16.80;99.90;;;;;;4899660;29;20043;-67
2023/06/06 06:25:43;;;;;;;7.65;5.53;;;17.00;99.90;;;;;;4882371;29;20039;-66
2023/06/06 06:28:20;;;;;;;10.43;6.75;;;17.10;99.90;;;;;;4900577;29;20384;-66
2023/06/06 06:30:46;;;;;;;9.02;5.82;;;17.20;99.90;;;;;;4882445;29;20027;-66
2023/06/06 06:33:13;;;;;;;8.45;5.32;;;17.20;99.90;;;;;;4907348;29;20035;-66
2023/06/06 06:35:41;;;;;;;6.45;4.38;;;17.20;99.90;;;;;;4874368;29;20535;-66
2023/06/06 06:38:07;;;;;;;7.88;4.70;;;17.20;99.90;;;;;;4903181;29;20032;-66
2023/06/06 06:40:34;;;;;;;7.00;5.18;;;17.20;99.90;;;;;;4895152;29;20062;-66
2023/06/06 06:43:00;;;;;;;8.20;4.72;;;17.30;99.90;;;;;;4884650;29;20035;-66
2023/06/06 06:45:36;;;;;;;8.65;5.47;;;17.40;99.90;;;;;;4898770;28;20047;-66
2023/06/06 06:48:02;;;;;;;6.70;4.10;;;17.50;99.90;;;;;;4886875;29;20048;-66
2023/06/06 06:50:29;;;;;;;8.02;4.47;;;17.50;99.90;;;;;;4880721;29;20032;-66
2023/06/06 06:52:56;;;;;;;5.82;4.70;;;17.60;99.90;;;;;;4890724;29;20050;-66
2023/06/06 06:55:25;;;;;;;10.70;5.75;;;17.60;99.90;;;;;;4905201;29;20032;-66
2023/06/06 06:57:53;;;;;;;7.82;3.90;;;17.60;99.90;;;;;;4886630;29;20028;-66
2023/06/06 07:00:23;;;;;;;5.72;4.22;;;17.60;99.90;;;;;;4895799;29;20391;-66
2023/06/06 07:02:51;;;;;;;10.07;6.20;;;17.80;99.90;;;;;;4902632;29;20055;-66
2023/06/06 07:05:18;;;;;;;7.82;5.00;;;17.90;99.90;;;;;;4885785;29;20043;-66
2023/06/06 07:07:50;;;;;;;7.35;4.57;;;17.90;99.90;;;;;;4885749;29;20135;-66
2023/06/06 07:10:17;;;;;;;7.63;4.78;;;18.10;99.90;;;;;;4895990;29;20024;-66
2023/06/06 07:12:48;;;;;;;10.02;5.60;;;18.20;99.90;;;;;;4874441;29;20035;-66
2023/06/06 07:15:15;;;;;;;7.15;4.18;;;18.20;99.90;;;;;;4907057;29;20054;-66
2023/06/06 07:17:51;;;;;;;5.20;3.17;;;18.30;99.90;;;;;;4903800;29;20032;-66
2023/06/06 07:20:21;;;;;;;5.93;3.10;;;18.50;99.90;;;;;;4894373;29;20028;-66
2023/06/06 07:22:49;;;;;;;7.35;4.72;;;18.70;99.90;;;;;;4885571;29;20040;-66
2023/06/06 07:25:16;;;;;;;5.50;3.35;;;18.80;99.90;;;;;;4899703;29;20791;-66
2023/06/06 07:27:42;;;;;;;5.45;3.22;;;19.00;99.90;;;;;;4900396;29;20067;-67
2023/06/06 07:30:13;;;;;;;10.93;3.53;;;19.10;99.90;;;;;;4872357;29;20054;-67
2023/06/06 07:32:46;;;;;;;7.10;4.75;;;19.20;99.90;;;;;;4883365;29;20043;-67
2023/06/06 07:35:20;;;;;;;8.50;5.00;;;19.30;99.90;;;;;;4888159;29;20072;-67
2023/06/06 07:37:47;;;;;;;6.93;4.07;;;19.40;99.90;;;;;;4903912;29;20047;-67
2023/06/06 07:40:14;;;;;;;7.20;4.47;;;19.50;99.90;;;;;;4876879;29;20043;-67
2023/06/06 07:42:41;;;;;;;9.80;4.75;;;19.60;99.90;;;;;;4899161;29;20035;-66
2023/06/06 07:45:08;;;;;;;4.78;3.97;;;19.70;99.90;;;;;;4898193;28;20097;-67
2023/06/06 07:47:34;;;;;;;5.85;4.20;;;19.80;99.90;;;;;;4897141;29;20043;-67
2023/06/06 07:50:02;;;;;;;6.50;2.35;;;19.90;99.90;;;;;;4889578;29;20816;-67
2023/06/06 07:52:30;;;;;;;6.07;3.28;;;20.10;99.90;;;;;;4896188;29;20031;-67
2023/06/06 07:54:58;;;;;;;5.65;4.30;;;20.20;99.90;;;;;;4900882;29;20519;-67
2023/06/06 07:57:26;;;;;;;8.93;4.75;;;20.30;99.60;;;;;;4885370;29;20020;-67
2023/06/06 07:59:53;;;;;;;7.18;4.60;;;20.30;99.40;;;;;;4878056;29;20486;-66
2023/06/06 08:02:20;;;;;;;5.57;3.25;;;20.30;99.30;;;;;;4884518;29;20040;-67
2023/06/06 08:04:46;;;;;;;6.00;4.18;;;20.40;99.50;;;;;;4898908;29;20076;-67
2023/06/06 08:07:16;;;;;;;6.60;3.65;;;20.60;99.30;;;;;;4882820;29;20031;-66
2023/06/06 08:09:43;;;;;;;6.55;4.00;;;20.80;98.90;;;;;;4892723;29;20043;-66
2023/06/06 08:12:11;;;;;;;4.72;3.00;;;20.90;98.70;;;;;;4898076;29;20027;-67
2023/06/06 08:14:37;;;;;;;5.15;3.72;;;21.00;98.20;;;;;;4900022;29;20043;-67
2023/06/06 08:17:05;;;;;;;6.88;3.67;;;21.10;98.10;;;;;;4904173;29;20019;-66
2023/06/06 08:19:31;;;;;;;4.78;2.35;;;21.10;97.70;;;;;;4897456;29;20048;-66
2023/06/06 08:21:57;;;;;;;6.38;3.60;;;21.20;97.90;;;;;;4897631;29;20039;-66
2023/06/06 08:24:24;;;;;;;6.72;4.00;;;21.30;97.80;;;;;;4897729;29;20589;-66
2023/06/06 08:26:50;;;;;;;6.45;3.47;;;21.50;97.60;;;;;;4883248;29;20040;-67
2023/06/06 08:29:17;;;;;;;7.15;4.10;;;21.60;97.30;;;;;;4898383;29;20373;-67
2023/06/06 08:31:43;;;;;;;4.07;2.50;;;21.70;96.90;;;;;;4893915;29;20376;-66
2023/06/06 08:34:10;;;;;;;4.68;3.20;;;21.70;96.80;;;;;;4883878;29;20561;-67
2023/06/06 08:36:37;;;;;;;9.43;4.18;;;21.80;96.70;;;;;;4901837;29;20032;-67
2023/06/06 08:39:06;;;;;;;7.40;4.32;;;21.90;96.60;;;;;;4905451;29;20027;-67
2023/06/06 08:41:33;;;;;;;7.70;4.50;;;22.00;96.40;;;;;;4896270;29;20046;-67
2023/06/06 08:44:03;;;;;;;6.72;3.58;;;22.00;95.80;;;;;;4903424;29;20032;-66
2023/06/06 08:46:33;;;;;;;4.40;3.33;;;22.00;95.70;;;;;;4900168;29;20036;-70
2023/06/06 08:49:03;;;;;;;5.13;4.15;;;22.10;95.80;;;;;;4883275;29;20052;-69
2023/06/06 08:51:30;;;;;;;9.77;7.80;;;22.30;95.80;;;;;;4893860;29;20507;-69
2023/06/06 08:53:58;;;;;;;8.45;5.90;;;22.40;95.40;;;;;;4867895;29;20425;-68
2023/06/06 08:56:26;;;;;;;6.18;3.75;;;22.50;95.10;;;;;;4884193;29;20035;-68
2023/06/06 08:58:53;;;;;;;8.00;4.22;;;22.70;95.10;;;;;;4885233;29;20043;-68
2023/06/06 09:01:22;;;;;;;6.95;2.92;;;22.80;94.60;;;;;;4866886;29;20031;-68
2023/06/06 09:03:53;;;;;;;5.70;3.15;;;22.90;94.60;;;;;;4888661;29;20091;-68
2023/06/06 09:06:20;;;;;;;5.00;3.03;;;23.10;94.50;;;;;;4898661;29;20577;-67
2023/06/06 09:08:48;;;;;;;5.07;2.58;;;23.30;93.80;;;;;;4885335;29;20423;-66
2023/06/06 09:11:17;;;;;;;5.65;2.20;;;23.40;93.70;;;;;;4866697;29;20615;-67
2023/06/06 09:13:44;;;;;;;7.00;3.58;;;23.50;93.60;;;;;;4900233;29;20040;-67
2023/06/06 09:16:11;;;;;;;2.97;1.45;;;23.70;93.20;;;;;;4900784;29;20620;-66
2023/06/06 09:18:38;;;;;;;3.70;1.92;;;23.80;92.90;;;;;;4901705;29;20050;-66
2023/06/06 09:21:05;;;;;;;3.47;2.10;;;23.90;92.80;;;;;;4879491;29;20514;-67
2023/06/06 09:23:31;;;;;;;3.63;2.13;;;24.00;92.60;;;;;;4888978;29;20054;-67
2023/06/06 09:25:58;;;;;;;5.68;2.72;;;24.10;92.50;;;;;;4887584;29;20039;-67
2023/06/06 09:28:39;;;;;;;6.10;2.65;;;24.20;92.20;;;;;;4894200;29;20044;-67
2023/06/06 09:31:29;;;;;;;4.93;2.17;;;24.30;92.00;;;;;;4872083;29;20047;-67
2023/06/06 09:33:57;;;;;;;4.15;2.00;;;24.40;91.80;;;;;;4881718;29;20519;-67
2023/06/06 09:36:27;;;;;;;3.17;2.35;;;24.50;91.40;;;;;;4880948;29;20040;-66
2023/06/06 09:38:55;;;;;;;5.57;2.47;;;24.50;91.30;;;;;;4896396;29;20028;-67
2023/06/06 09:41:22;;;;;;;2.83;1.55;;;24.60;91.00;;;;;;4875919;29;20040;-66
2023/06/06 09:43:48;;;;;;;3.50;2.50;;;24.70;90.90;;;;;;4885392;29;20602;-67
2023/06/06 09:46:16;;;;;;;5.60;3.25;;;24.80;90.90;;;;;;4884922;29;20077;-67
2023/06/06 09:48:43;;;;;;;5.28;1.63;;;25.00;90.30;;;;;;4900007;29;20056;-67
2023/06/06 09:51:11;;;;;;;5.13;3.13;;;25.00;90.10;;;;;;4871936;29;20098;-67
2023/06/06 09:53:38;;;;;;;6.60;3.70;;;25.10;90.00;;;;;;4880070;29;20044;-66
2023/06/06 09:56:05;;;;;;;4.55;3.00;;;25.10;89.10;;;;;;4881083;29;20044;-66
2023/06/06 09:58:33;;;;;;;6.53;3.63;;;24.90;88.10;;;;;;4877000;29;20043;-66
2023/06/06 10:01:02;;;;;;;5.30;2.90;;;24.70;87.70;;;;;;4874302;29;20024;-66
2023/06/06 10:03:30;;;;;;;4.60;2.63;;;24.70;88.70;;;;;;4854915;29;20036;-66
2023/06/06 10:05:56;;;;;;;5.43;3.20;;;24.70;88.30;;;;;;4904077;29;20036;-66
2023/06/06 10:08:23;;;;;;;11.23;3.47;;;24.80;87.90;;;;;;4903210;29;20047;-66
2023/06/06 10:10:50;;;;;;;4.18;2.20;;;24.90;87.70;;;;;;4879887;29;20040;-66
2023/06/06 10:13:19;;;;;;;4.82;2.67;;;24.90;88.10;;;;;;4886074;29;20484;-72
2023/06/06 10:15:46;;;;;;;5.55;3.17;;;25.10;87.60;;;;;;4885249;29;20717;-67
2023/06/06 10:18:14;;;;;;;8.20;3.55;;;25.20;87.20;;;;;;4886473;29;20392;-70
2023/06/06 10:20:41;;;;;;;12.25;7.15;;;25.30;86.90;;;;;;4873533;29;20887;-68
2023/06/06 10:23:07;;;;;;;7.03;5.07;;;25.40;86.30;;;;;;4883623;29;20048;-68
2023/06/06 10:25:35;;;;;;;8.57;6.00;;;25.50;86.20;;;;;;4870702;29;20036;-68
2023/06/06 10:28:22;;;;;;;5.25;4.18;;;25.60;85.50;;;;;;4898216;29;20055;-68
2023/06/06 10:31:08;;;;;;;5.65;3.90;;;25.80;86.00;;;;;;4888877;29;20036;-69
2023/06/06 10:33:55;;;;;;;5.75;3.83;;;26.10;85.40;;;;;;4903607;29;20032;-70
2023/06/06 10:36:22;;;;;;;4.47;3.55;;;26.30;84.60;;;;;;4902960;29;20016;-70
2023/06/06 10:39:17;;;;;;;7.07;3.65;;;26.60;84.00;;;;;;4904459;29;20034;-69
2023/06/06 10:42:06;;;;;;;5.13;3.35;;;26.80;82.80;;;;;;4879177;29;20514;-67
2023/06/06 10:44:53;;;;;;;5.95;3.17;;;27.00;82.10;;;;;;4886999;29;20043;-66
2023/06/06 10:47:33;;;;;;;7.28;3.28;;;27.30;81.50;;;;;;4905337;29;20031;-67
2023/06/06 10:50:11;;;;;;;7.88;2.05;;;27.40;80.80;;;;;;4884502;29;20044;-67
2023/06/06 10:53:01;;;;;;;6.28;2.97;;;27.80;80.80;;;;;;4906470;29;20046;-66
2023/06/06 10:55:30;;;;;;;6.53;3.88;;;28.00;78.50;;;;;;4886157;29;20043;-66
2023/06/06 10:58:03;;;;;;;5.53;2.72;;;28.10;77.30;;;;;;4899325;29;20036;-66
2023/06/06 11:00:40;;;;;;;5.25;2.80;;;28.30;77.80;;;;;;4895980;29;21417;-67
2023/06/06 11:03:07;;;;;;;6.53;3.40;;;28.50;77.10;;;;;;4903750;29;20036;-66
2023/06/06 11:05:53;;;;;;;7.22;2.75;;;28.70;75.30;;;;;;4901957;29;20062;-66
2023/06/06 11:08:33;;;;;;;4.63;2.30;;;28.70;74.70;;;;;;4889234;29;20434;-66
2023/06/06 11:11:15;;;;;;;4.55;2.05;;;29.00;75.10;;;;;;4899449;29;20047;-66
2023/06/06 11:14:00;;;;;;;3.92;2.05;;;29.40;74.40;;;;;;4907230;29;20031;-66
2023/06/06 11:16:50;;;;;;;4.72;2.95;;;29.70;74.00;;;;;;4885657;29;20040;-66
2023/06/06 11:19:19;;;;;;;6.88;3.17;;;30.10;72.50;;;;;;4900272;29;21243;-69
2023/06/06 11:21:48;;;;;;;9.65;3.20;;;30.20;69.60;;;;;;4894579;29;20048;-69
2023/06/06 11:24:16;;;;;;;4.50;2.45;;;30.10;68.80;;;;;;4899587;29;20839;-69
2023/06/06 11:26:43;;;;;;;4.32;2.33;;;30.30;68.80;;;;;;4886280;29;20043;-70
2023/06/06 11:29:11;;;;;;;6.22;3.33;;;30.50;68.80;;;;;;4886985;29;20060;-67
2023/06/06 11:31:38;;;;;;;4.63;2.33;;;30.90;67.50;;;;;;4900332;29;20036;-66
2023/06/06 11:34:11;;;;;;;6.82;3.83;;;31.10;67.00;;;;;;4891511;29;20275;-67
2023/06/06 11:36:40;;;;;;;8.18;2.97;;;31.30;66.90;;;;;;4886782;29;20032;-67
2023/06/06 11:39:10;;;;;;;6.38;2.85;;;31.80;65.90;;;;;;4884447;29;20036;-67
2023/06/06 11:41:41;;;;;;;5.65;2.75;;;32.00;64.20;;;;;;4897147;29;20667;-67
2023/06/06 11:44:07;;;;;;;4.43;2.13;;;32.20;63.90;;;;;;4884831;29;20043;-67
2023/06/06 11:46:50;;;;;;;5.72;3.13;;;32.40;63.40;;;;;;4898609;29;20286;-67
2023/06/06 11:49:22;;;;;;;3.95;2.95;;;32.70;62.50;;;;;;4897022;29;20047;-68
2023/06/06 11:52:18;;;;;;;4.63;2.72;;;32.80;61.30;;;;;;4901776;29;20043;-67
2023/06/06 11:54:53;;;;;;;7.57;3.53;;;33.00;60.50;;;;;;4879076;29;20044;-67
2023/06/06 11:57:20;;;;;;;5.68;2.55;;;33.10;60.20;;;;;;4904515;29;20031;-67
2023/06/06 11:59:54;;;;;;;5.15;2.47;;;33.10;58.50;;;;;;4880104;29;20046;-66
2023/06/06 12:02:20;;;;;;;5.47;2.40;;;33.10;58.40;;;;;;4901504;29;20043;-66
2023/06/06 12:04:47;;;;;;;5.43;1.88;;;33.20;58.60;;;;;;4901380;29;20813;-67
2023/06/06 12:07:14;;;;;;;5.05;2.72;;;33.40;58.50;;;;;;4900189;29;20058;-66
2023/06/06 12:09:40;;;;;;;6.18;1.85;;;33.70;57.80;;;;;;4896168;29;20051;-66
2023/06/06 12:12:07;;;;;;;3.58;1.85;;;34.10;57.60;;;;;;4882383;29;20460;-66
2023/06/06 12:14:33;;;;;;;5.63;2.42;;;34.30;56.20;;;;;;4904240;29;20039;-66
2023/06/06 12:17:05;;;;;;;3.70;2.83;;;34.50;55.80;;;;;;4906978;29;20040;-66
2023/06/06 12:19:32;;;;;;;4.93;1.75;;;34.70;55.00;;;;;;4902143;29;20514;-66
2023/06/06 12:21:59;;;;;;;5.80;2.28;;;35.00;55.00;;;;;;4899412;29;20526;-68
2023/06/06 12:24:27;;;;;;;4.95;2.90;;;35.20;53.70;;;;;;4898944;29;20466;-68
2023/06/06 12:27:02;;;;;;;6.45;3.35;;;35.30;53.30;;;;;;4865559;29;20490;-68
2023/06/06 12:29:31;;;;;;;4.93;3.90;;;35.50;53.10;;;;;;4895949;29;20051;-69
2023/06/06 12:32:17;;;;;;;5.93;2.55;;;35.70;53.10;;;;;;4881304;29;20046;-67
2023/06/06 12:34:50;;;;;;;5.15;2.33;;;36.10;51.90;;;;;;4882789;29;20040;-66
2023/06/06 12:37:17;;;;;;;3.83;2.25;;;36.10;51.00;;;;;;4902327;29;20032;-67
2023/06/06 12:39:44;;;;;;;8.38;2.13;;;36.10;50.70;;;;;;4882098;29;20052;-66
2023/06/06 12:42:19;;;;;;;3.42;1.75;;;36.00;50.80;;;;;;4903118;29;20495;-66
2023/06/06 12:44:46;;;;;;;6.85;2.55;;;36.20;51.50;;;;;;4901416;29;20050;-66
2023/06/06 12:47:14;;;;;;;6.15;2.42;;;36.30;50.80;;;;;;4899853;29;20716;-66
2023/06/06 12:49:41;;;;;;;4.30;2.00;;;36.60;50.00;;;;;;4895332;29;20048;-66
2023/06/06 12:52:08;;;;;;;3.92;1.83;;;36.60;49.40;;;;;;4899137;29;20388;-66